sensor_id;sensor_type;location;lat;lon;timestamp;temperature;humidity
7970;DHT22;4030;52.362;9.206;2022-11-20T00:01:21;2.50;54.10
7970;DHT22;4030;52.362;9.206;2022-11-20T00:03:52;2.60;52.30
7970;DHT22;4030;52.362;9.206;2022-11-20T00:06:20;2.60;52.40
7970;DHT22;4030;52.362;9.206;2022-11-20T00:08:47;2.50;52.20
7970;DHT22;4030;52.362;9.206;2022-11-20T00:11:16;2.60;56.40
7970;DHT22;4030;52.362;9.206;2022-11-20T00:13:44;2.50;52.30
7970;DHT22;4030;52.362;9.206;2022-11-20T00:16:12;2.40;56.20
7970;DHT22;4030;52.362;9.206;2022-11-20T00:21:11;2.30;56.10
7970;DHT22;4030;52.362;9.206;2022-11-20T00:23:41;2.70;56.40
7970;DHT22;4030;52.362;9.206;2022-11-20T00:26:10;2.60;56.40
7970;DHT22;4030;52.362;9.206;2022-11-20T00:28:38;2.60;56.10
7970;DHT22;4030;52.362;9.206;2022-11-20T00:31:10;2.60;56.40
7970;DHT22;4030;52.362;9.206;2022-11-20T00:33:37;2.70;56.40
7970;DHT22;4030;52.362;9.206;2022-11-20T00:36:08;2.50;52.30
7970;DHT22;4030;52.362;9.206;2022-11-20T00:38:35;2.50;54.60
7970;DHT22;4030;52.362;9.206;2022-11-20T00:41:04;2.40;52.20
7970;DHT22;4030;52.362;9.206;2022-11-20T00:43:32;2.60;56.50
7970;DHT22;4030;52.362;9.206;2022-11-20T00:46:06;2.20;56.10
7970;DHT22;4030;52.362;9.206;2022-11-20T00:48:36;2.10;56.10
7970;DHT22;4030;52.362;9.206;2022-11-20T00:51:01;2.10;56.20
7970;DHT22;4030;52.362;9.206;2022-11-20T00:58:22;2.30;52.20
7970;DHT22;4030;52.362;9.206;2022-11-20T01:00:48;2.60;56.30
7970;DHT22;4030;52.362;9.206;2022-11-20T01:05:42;2.20;56.00
7970;DHT22;4030;52.362;9.206;2022-11-20T01:08:08;2.10;55.90
7970;DHT22;4030;52.362;9.206;2022-11-20T01:10:33;2.20;54.70
7970;DHT22;4030;52.362;9.206;2022-11-20T01:20:36;2.30;56.40
7970;DHT22;4030;52.362;9.206;2022-11-20T01:23:02;2.40;55.60
7970;DHT22;4030;52.362;9.206;2022-11-20T01:25:29;2.20;54.20
7970;DHT22;4030;52.362;9.206;2022-11-20T01:27:55;2.20;53.20
7970;DHT22;4030;52.362;9.206;2022-11-20T01:32:47;1.90;56.20
7970;DHT22;4030;52.362;9.206;2022-11-20T01:35:12;2.00;56.20
7970;DHT22;4030;52.362;9.206;2022-11-20T01:37:38;2.10;55.80
7970;DHT22;4030;52.362;9.206;2022-11-20T01:40:04;2.10;52.40
7970;DHT22;4030;52.362;9.206;2022-11-20T01:42:31;1.70;52.70
7970;DHT22;4030;52.362;9.206;2022-11-20T01:45:51;2.30;53.90
7970;DHT22;4030;52.362;9.206;2022-11-20T01:48:23;2.20;56.40
7970;DHT22;4030;52.362;9.206;2022-11-20T01:50:52;2.00;52.40
7970;DHT22;4030;52.362;9.206;2022-11-20T01:53:21;2.20;56.60
7970;DHT22;4030;52.362;9.206;2022-11-20T01:55:52;2.00;56.50
7970;DHT22;4030;52.362;9.206;2022-11-20T01:58:21;2.00;56.40
7970;DHT22;4030;52.362;9.206;2022-11-20T02:03:18;1.90;52.50
7970;DHT22;4030;52.362;9.206;2022-11-20T02:05:50;1.90;53.20
7970;DHT22;4030;52.362;9.206;2022-11-20T02:08:20;1.70;56.80
7970;DHT22;4030;52.362;9.206;2022-11-20T02:13:13;2.00;54.20
7970;DHT22;4030;52.362;9.206;2022-11-20T02:15:57;1.90;56.90
7970;DHT22;4030;52.362;9.206;2022-11-20T02:18:24;1.80;55.70
7970;DHT22;4030;52.362;9.206;2022-11-20T02:21:05;2.10;57.30
7970;DHT22;4030;52.362;9.206;2022-11-20T02:23:39;2.20;57.30
7970;DHT22;4030;52.362;9.206;2022-11-20T02:26:30;2.00;54.60
7970;DHT22;4030;52.362;9.206;2022-11-20T02:28:59;1.90;52.60
7970;DHT22;4030;52.362;9.206;2022-11-20T02:31:26;1.80;57.00
7970;DHT22;4030;52.362;9.206;2022-11-20T02:33:58;2.20;57.60
7970;DHT22;4030;52.362;9.206;2022-11-20T02:36:26;1.50;57.00
7970;DHT22;4030;52.362;9.206;2022-11-20T02:38:53;1.70;53.50
7970;DHT22;4030;52.362;9.206;2022-11-20T03:17:53;1.70;52.80
7970;DHT22;4030;52.362;9.206;2022-11-20T03:22:47;1.80;55.90
7970;DHT22;4030;52.362;9.206;2022-11-20T03:30:05;1.60;52.80
7970;DHT22;4030;52.362;9.206;2022-11-20T03:32:31;1.50;57.10
7970;DHT22;4030;52.362;9.206;2022-11-20T03:34:57;1.80;57.60
7970;DHT22;4030;52.362;9.206;2022-11-20T03:37:23;1.60;56.10
7970;DHT22;4030;52.362;9.206;2022-11-20T03:44:59;1.80;57.80
7970;DHT22;4030;52.362;9.206;2022-11-20T04:14:14;1.50;53.40
7970;DHT22;4030;52.362;9.206;2022-11-20T04:16:40;1.50;53.40
7970;DHT22;4030;52.362;9.206;2022-11-20T04:19:10;1.80;57.40
7970;DHT22;4030;52.362;9.206;2022-11-20T04:21:37;1.60;57.70
7970;DHT22;4030;52.362;9.206;2022-11-20T04:24:03;1.60;57.80
7970;DHT22;4030;52.362;9.206;2022-11-20T04:26:30;1.60;57.60
7970;DHT22;4030;52.362;9.206;2022-11-20T04:31:25;1.70;55.80
7970;DHT22;4030;52.362;9.206;2022-11-20T04:36:24;1.50;57.70
7970;DHT22;4030;52.362;9.206;2022-11-20T04:38:55;1.90;57.60
7970;DHT22;4030;52.362;9.206;2022-11-20T04:41:24;1.60;53.60
7970;DHT22;4030;52.362;9.206;2022-11-20T04:43:53;1.60;56.80
7970;DHT22;4030;52.362;9.206;2022-11-20T04:46:25;1.80;57.80
7970;DHT22;4030;52.362;9.206;2022-11-20T04:56:12;1.90;55.30
7970;DHT22;4030;52.362;9.206;2022-11-20T04:58:38;1.90;58.00
7970;DHT22;4030;52.362;9.206;2022-11-20T05:03:31;1.60;57.60
7970;DHT22;4030;52.362;9.206;2022-11-20T05:06:02;2.10;57.50
7970;DHT22;4030;52.362;9.206;2022-11-20T05:08:30;1.70;57.90
7970;DHT22;4030;52.362;9.206;2022-11-20T05:11:17;1.80;54.20
7970;DHT22;4030;52.362;9.206;2022-11-20T05:13:44;1.80;58.20
7970;DHT22;4030;52.362;9.206;2022-11-20T05:16:16;1.80;58.20
7970;DHT22;4030;52.362;9.206;2022-11-20T05:18:46;1.90;56.60
7970;DHT22;4030;52.362;9.206;2022-11-20T05:21:12;2.10;56.60
7970;DHT22;4030;52.362;9.206;2022-11-20T05:26:07;1.90;54.70
7970;DHT22;4030;52.362;9.206;2022-11-20T05:31:07;1.80;55.00
7970;DHT22;4030;52.362;9.206;2022-11-20T05:33:41;1.90;58.30
7970;DHT22;4030;52.362;9.206;2022-11-20T05:36:09;1.70;57.20
7970;DHT22;4030;52.362;9.206;2022-11-20T05:38:35;2.20;58.70
7970;DHT22;4030;52.362;9.206;2022-11-20T05:41:11;1.70;58.40
7970;DHT22;4030;52.362;9.206;2022-11-20T05:43:39;2.00;54.90
7970;DHT22;4030;52.362;9.206;2022-11-20T05:46:07;2.10;56.20
7970;DHT22;4030;52.362;9.206;2022-11-20T05:51:03;2.00;55.00
7970;DHT22;4030;52.362;9.206;2022-11-20T05:53:30;2.10;58.70
7970;DHT22;4030;52.362;9.206;2022-11-20T05:56:08;1.80;58.40
7970;DHT22;4030;52.362;9.206;2022-11-20T05:58:36;2.40;58.80
7970;DHT22;4030;52.362;9.206;2022-11-20T06:01:16;1.90;55.10
7970;DHT22;4030;52.362;9.206;2022-11-20T06:03:43;2.00;58.10
7970;DHT22;4030;52.362;9.206;2022-11-20T06:08:39;1.80;58.30
7970;DHT22;4030;52.362;9.206;2022-11-20T06:11:07;2.10;58.70
7970;DHT22;4030;52.362;9.206;2022-11-20T06:13:34;2.40;59.00
7970;DHT22;4030;52.362;9.206;2022-11-20T06:18:28;2.20;55.30
7970;DHT22;4030;52.362;9.206;2022-11-20T06:21:02;2.30;58.90
7970;DHT22;4030;52.362;9.206;2022-11-20T06:23:33;1.90;58.80
7970;DHT22;4030;52.362;9.206;2022-11-20T06:26:08;2.00;57.70
7970;DHT22;4030;52.362;9.206;2022-11-20T06:28:35;3.70;57.10
7970;DHT22;4030;52.362;9.206;2022-11-20T06:33:27;2.00;55.60
7970;DHT22;4030;52.362;9.206;2022-11-20T06:35:57;2.10;55.50
7970;DHT22;4030;52.362;9.206;2022-11-20T06:38:24;2.20;55.60
7970;DHT22;4030;52.362;9.206;2022-11-20T06:40:50;2.30;59.10
7970;DHT22;4030;52.362;9.206;2022-11-20T06:43:16;2.30;58.00
7970;DHT22;4030;52.362;9.206;2022-11-20T06:48:08;2.30;57.60
7970;DHT22;4030;52.362;9.206;2022-11-20T06:50:36;2.10;59.00
7970;DHT22;4030;52.362;9.206;2022-11-20T06:53:02;1.90;56.80
7970;DHT22;4030;52.362;9.206;2022-11-20T06:55:29;2.40;59.30
7970;DHT22;4030;52.362;9.206;2022-11-20T06:57:55;2.30;59.20
7970;DHT22;4030;52.362;9.206;2022-11-20T07:00:21;2.10;59.20
7970;DHT22;4030;52.362;9.206;2022-11-20T07:02:46;2.40;59.40
7970;DHT22;4030;52.362;9.206;2022-11-20T07:05:12;2.10;56.80
7970;DHT22;4030;52.362;9.206;2022-11-20T07:10:04;2.40;56.00
7970;DHT22;4030;52.362;9.206;2022-11-20T07:12:30;2.30;59.30
7970;DHT22;4030;52.362;9.206;2022-11-20T07:49:01;2.60;58.60
7970;DHT22;4030;52.362;9.206;2022-11-20T07:53:54;2.60;60.30
7970;DHT22;4030;52.362;9.206;2022-11-20T07:56:20;2.60;60.10
7970;DHT22;4030;52.362;9.206;2022-11-20T07:58:45;2.50;59.00
7970;DHT22;4030;52.362;9.206;2022-11-20T08:06:04;2.50;56.70
7970;DHT22;4030;52.362;9.206;2022-11-20T08:08:30;2.60;56.70
7970;DHT22;4030;52.362;9.206;2022-11-20T08:10:58;2.60;56.70
7970;DHT22;4030;52.362;9.206;2022-11-20T08:13:44;2.40;59.90
7970;DHT22;4030;52.362;9.206;2022-11-20T08:16:28;2.50;59.80
7970;DHT22;4030;52.362;9.206;2022-11-20T08:18:54;2.60;56.70
7970;DHT22;4030;52.362;9.206;2022-11-20T08:31:04;2.60;56.80
7970;DHT22;4030;52.362;9.206;2022-11-20T08:36:01;3.00;60.20
7970;DHT22;4030;52.362;9.206;2022-11-20T08:40:59;3.20;59.80
7970;DHT22;4030;52.362;9.206;2022-11-20T08:43:44;3.10;60.10
7970;DHT22;4030;52.362;9.206;2022-11-20T08:46:09;2.80;57.60
7970;DHT22;4030;52.362;9.206;2022-11-20T08:48:35;2.90;59.70
7970;DHT22;4030;52.362;9.206;2022-11-20T08:51:01;2.80;58.10
7970;DHT22;4030;52.362;9.206;2022-11-20T08:53:27;3.10;56.40
7970;DHT22;4030;52.362;9.206;2022-11-20T08:55:53;3.10;58.10
7970;DHT22;4030;52.362;9.206;2022-11-20T09:05:38;3.60;59.60
7970;DHT22;4030;52.362;9.206;2022-11-20T09:08:04;3.30;59.10
7970;DHT22;4030;52.362;9.206;2022-11-20T09:10:30;3.50;59.00
7970;DHT22;4030;52.362;9.206;2022-11-20T09:12:56;3.50;57.70
7970;DHT22;4030;52.362;9.206;2022-11-20T09:15:23;3.60;58.60
7970;DHT22;4030;52.362;9.206;2022-11-20T09:18:00;4.10;55.70
7970;DHT22;4030;52.362;9.206;2022-11-20T09:20:28;3.70;58.20
7970;DHT22;4030;52.362;9.206;2022-11-20T09:22:54;4.30;58.40
7970;DHT22;4030;52.362;9.206;2022-11-20T09:30:16;4.20;57.00
7970;DHT22;4030;52.362;9.206;2022-11-20T09:32:42;4.60;57.70
7970;DHT22;4030;52.362;9.206;2022-11-20T09:35:08;4.10;57.40
7970;DHT22;4030;52.362;9.206;2022-11-20T09:37:35;4.70;57.70
7970;DHT22;4030;52.362;9.206;2022-11-20T09:40:01;4.70;57.50
7970;DHT22;4030;52.362;9.206;2022-11-20T09:42:40;4.60;55.90
7970;DHT22;4030;52.362;9.206;2022-11-20T09:50:45;5.00;57.30
7970;DHT22;4030;52.362;9.206;2022-11-20T09:56:03;4.90;54.40
7970;DHT22;4030;52.362;9.206;2022-11-20T10:01:12;5.30;56.00
7970;DHT22;4030;52.362;9.206;2022-11-20T10:06:33;5.40;56.60
7970;DHT22;4030;52.362;9.206;2022-11-20T10:14:33;5.30;54.70
7970;DHT22;4030;52.362;9.206;2022-11-20T10:18:20;5.10;53.50
7970;DHT22;4030;52.362;9.206;2022-11-20T10:26:57;5.40;53.50
7970;DHT22;4030;52.362;9.206;2022-11-20T10:29:36;5.10;55.70
7970;DHT22;4030;52.362;9.206;2022-11-20T10:32:17;5.40;53.50
7970;DHT22;4030;52.362;9.206;2022-11-20T10:35:02;5.30;54.30
7970;DHT22;4030;52.362;9.206;2022-11-20T10:37:31;5.40;53.60
7970;DHT22;4030;52.362;9.206;2022-11-20T10:40:18;5.40;53.60
7970;DHT22;4030;52.362;9.206;2022-11-20T10:43:03;5.80;54.20
7970;DHT22;4030;52.362;9.206;2022-11-20T10:48:26;5.50;55.80
7970;DHT22;4030;52.362;9.206;2022-11-20T10:56:50;5.50;55.90
7970;DHT22;4030;52.362;9.206;2022-11-20T10:59:45;5.70;54.00
7970;DHT22;4030;52.362;9.206;2022-11-20T11:02:22;5.30;54.50
7970;DHT22;4030;52.362;9.206;2022-11-20T11:04:50;5.10;55.50
7970;DHT22;4030;52.362;9.206;2022-11-20T11:07:42;5.20;55.70
7970;DHT22;4030;52.362;9.206;2022-11-20T11:10:18;5.60;55.80
7970;DHT22;4030;52.362;9.206;2022-11-20T11:12:47;5.40;55.30
7970;DHT22;4030;52.362;9.206;2022-11-20T11:15:37;5.90;55.80
7970;DHT22;4030;52.362;9.206;2022-11-20T11:18:10;5.90;53.70
7970;DHT22;4030;52.362;9.206;2022-11-20T11:23:03;5.70;53.90
7970;DHT22;4030;52.362;9.206;2022-11-20T11:25:34;6.10;55.30
7970;DHT22;4030;52.362;9.206;2022-11-20T11:30:44;6.60;52.80
7970;DHT22;4030;52.362;9.206;2022-11-20T11:33:17;6.50;54.20
7970;DHT22;4030;52.362;9.206;2022-11-20T11:35:46;6.70;52.80
7970;DHT22;4030;52.362;9.206;2022-11-20T11:38:35;6.70;54.20
7970;DHT22;4030;52.362;9.206;2022-11-20T11:41:05;7.10;54.50
7970;DHT22;4030;52.362;9.206;2022-11-20T11:43:36;7.00;54.20
7970;DHT22;4030;52.362;9.206;2022-11-20T11:46:31;6.70;52.90
7970;DHT22;4030;52.362;9.206;2022-11-20T11:49:18;6.80;54.30
7970;DHT22;4030;52.362;9.206;2022-11-20T11:54:55;6.70;53.10
7970;DHT22;4030;52.362;9.206;2022-11-20T12:00:11;6.60;53.60
7970;DHT22;4030;52.362;9.206;2022-11-20T12:02:56;6.20;53.80
7970;DHT22;4030;52.362;9.206;2022-11-20T12:05:40;6.40;54.50
7970;DHT22;4030;52.362;9.206;2022-11-20T12:08:31;6.60;54.50
7970;DHT22;4030;52.362;9.206;2022-11-20T12:11:30;7.30;55.50
7970;DHT22;4030;52.362;9.206;2022-11-20T12:16:40;8.00;53.60
7970;DHT22;4030;52.362;9.206;2022-11-20T12:19:12;7.80;52.80
7970;DHT22;4030;52.362;9.206;2022-11-20T12:22:02;8.10;53.30
7970;DHT22;4030;52.362;9.206;2022-11-20T12:28:12;8.00;52.50
7970;DHT22;4030;52.362;9.206;2022-11-20T12:31:00;8.80;51.20
7970;DHT22;4030;52.362;9.206;2022-11-20T12:36:23;9.20;51.10
7970;DHT22;4030;52.362;9.206;2022-11-20T13:07:45;9.00;53.60
7970;DHT22;4030;52.362;9.206;2022-11-20T13:15:59;8.70;53.70
7970;DHT22;4030;52.362;9.206;2022-11-20T13:18:38;8.60;53.00
7970;DHT22;4030;52.362;9.206;2022-11-20T13:21:18;8.60;53.10
7970;DHT22;4030;52.362;9.206;2022-11-20T13:23:44;8.20;53.50
7970;DHT22;4030;52.362;9.206;2022-11-20T13:26:22;8.80;53.90
7970;DHT22;4030;52.362;9.206;2022-11-20T13:29:09;8.50;54.10
7970;DHT22;4030;52.362;9.206;2022-11-20T13:31:40;8.30;53.50
7970;DHT22;4030;52.362;9.206;2022-11-20T13:34:12;8.50;54.30
7970;DHT22;4030;52.362;9.206;2022-11-20T13:36:50;8.10;53.90
7970;DHT22;4030;52.362;9.206;2022-11-20T13:39:27;8.20;53.70
7970;DHT22;4030;52.362;9.206;2022-11-20T13:41:56;8.20;54.50
7970;DHT22;4030;52.362;9.206;2022-11-20T13:44:39;8.10;54.50
7970;DHT22;4030;52.362;9.206;2022-11-20T13:47:21;8.10;53.90
7970;DHT22;4030;52.362;9.206;2022-11-20T14:01:24;7.80;54.30
7970;DHT22;4030;52.362;9.206;2022-11-20T14:03:52;8.30;55.00
7970;DHT22;4030;52.362;9.206;2022-11-20T14:06:31;7.50;54.60
7970;DHT22;4030;52.362;9.206;2022-11-20T14:08:59;7.90;55.00
7970;DHT22;4030;52.362;9.206;2022-11-20T14:11:29;7.60;54.70
7970;DHT22;4030;52.362;9.206;2022-11-20T14:16:33;7.60;54.60
7970;DHT22;4030;52.362;9.206;2022-11-20T14:21:52;7.60;55.20
7970;DHT22;4030;52.362;9.206;2022-11-20T14:24:21;7.60;54.80
7970;DHT22;4030;52.362;9.206;2022-11-20T14:26:48;7.40;55.30
7970;DHT22;4030;52.362;9.206;2022-11-20T14:29:28;7.50;54.80
7970;DHT22;4030;52.362;9.206;2022-11-20T14:31:58;7.30;55.20
7970;DHT22;4030;52.362;9.206;2022-11-20T14:34:29;7.40;55.90
7970;DHT22;4030;52.362;9.206;2022-11-20T14:36:58;7.30;55.80
7970;DHT22;4030;52.362;9.206;2022-11-20T14:39:30;7.20;55.30
7970;DHT22;4030;52.362;9.206;2022-11-20T14:41:57;7.50;56.00
7970;DHT22;4030;52.362;9.206;2022-11-20T14:44:27;7.10;55.60
7970;DHT22;4030;52.362;9.206;2022-11-20T14:46:56;6.80;56.20
7970;DHT22;4030;52.362;9.206;2022-11-20T14:49:23;7.00;56.60
7970;DHT22;4030;52.362;9.206;2022-11-20T14:51:59;6.90;56.30
7970;DHT22;4030;52.362;9.206;2022-11-20T14:57:37;6.80;57.10
7970;DHT22;4030;52.362;9.206;2022-11-20T15:02:42;6.60;56.30
7970;DHT22;4030;52.362;9.206;2022-11-20T15:05:10;6.10;56.80
7970;DHT22;4030;52.362;9.206;2022-11-20T15:07:38;6.70;57.00
7970;DHT22;4030;52.362;9.206;2022-11-20T15:10:21;6.40;57.30
7970;DHT22;4030;52.362;9.206;2022-11-20T15:13:10;6.30;56.40
7970;DHT22;4030;52.362;9.206;2022-11-20T15:15:48;6.30;57.60
7970;DHT22;4030;52.362;9.206;2022-11-20T15:18:18;6.30;57.90
7970;DHT22;4030;52.362;9.206;2022-11-20T15:20:45;5.80;57.50
7970;DHT22;4030;52.362;9.206;2022-11-20T15:23:16;5.90;57.70
7970;DHT22;4030;52.362;9.206;2022-11-20T15:25:45;6.40;57.00
7970;DHT22;4030;52.362;9.206;2022-11-20T15:28:21;6.10;58.00
7970;DHT22;4030;52.362;9.206;2022-11-20T15:30:50;5.70;57.10
7970;DHT22;4030;52.362;9.206;2022-11-20T15:33:17;5.50;57.60
7970;DHT22;4030;52.362;9.206;2022-11-20T15:35:44;5.80;56.90
7970;DHT22;4030;52.362;9.206;2022-11-20T15:38:09;5.90;58.30
7970;DHT22;4030;52.362;9.206;2022-11-20T15:43:02;5.60;58.10
7970;DHT22;4030;52.362;9.206;2022-11-20T15:45:30;5.80;58.30
7970;DHT22;4030;52.362;9.206;2022-11-20T15:48:00;5.50;57.20
7970;DHT22;4030;52.362;9.206;2022-11-20T15:50:38;5.20;58.00
7970;DHT22;4030;52.362;9.206;2022-11-20T15:53:24;5.10;57.40
7970;DHT22;4030;52.362;9.206;2022-11-20T15:55:49;5.50;57.40
7970;DHT22;4030;52.362;9.206;2022-11-20T16:00:42;5.20;58.40
7970;DHT22;4030;52.362;9.206;2022-11-20T16:03:13;5.10;57.00
7970;DHT22;4030;52.362;9.206;2022-11-20T16:08:06;5.10;57.20
7970;DHT22;4030;52.362;9.206;2022-11-20T16:15:49;5.40;58.80
7970;DHT22;4030;52.362;9.206;2022-11-20T16:18:19;5.10;57.40
7970;DHT22;4030;52.362;9.206;2022-11-20T16:20:51;5.20;58.00
7970;DHT22;4030;52.362;9.206;2022-11-20T16:23:18;5.10;57.50
7970;DHT22;4030;52.362;9.206;2022-11-20T16:25:46;4.80;58.70
7970;DHT22;4030;52.362;9.206;2022-11-20T16:28:12;4.90;57.60
7970;DHT22;4030;52.362;9.206;2022-11-20T16:30:39;5.00;57.50
7970;DHT22;4030;52.362;9.206;2022-11-20T16:33:10;5.10;59.10
7970;DHT22;4030;52.362;9.206;2022-11-20T16:35:37;5.00;59.10
7970;DHT22;4030;52.362;9.206;2022-11-20T16:38:03;5.00;59.20
7970;DHT22;4030;52.362;9.206;2022-11-20T16:40:29;4.80;58.80
7970;DHT22;4030;52.362;9.206;2022-11-20T16:45:22;5.20;59.40
7970;DHT22;4030;52.362;9.206;2022-11-20T16:47:48;4.90;59.30
7970;DHT22;4030;52.362;9.206;2022-11-20T16:55:06;5.10;59.50
7970;DHT22;4030;52.362;9.206;2022-11-20T16:57:32;5.00;59.40
7970;DHT22;4030;52.362;9.206;2022-11-20T16:59:59;5.10;58.60
7970;DHT22;4030;52.362;9.206;2022-11-20T17:02:25;4.70;57.90
7970;DHT22;4030;52.362;9.206;2022-11-20T17:04:53;4.80;58.10
7970;DHT22;4030;52.362;9.206;2022-11-20T17:09:45;4.80;59.10
7970;DHT22;4030;52.362;9.206;2022-11-20T17:29:16;4.70;59.40
7970;DHT22;4030;52.362;9.206;2022-11-20T17:31:45;4.70;60.00
7970;DHT22;4030;52.362;9.206;2022-11-20T17:34:12;4.80;59.00
7970;DHT22;4030;52.362;9.206;2022-11-20T17:36:39;4.30;59.70
7970;DHT22;4030;52.362;9.206;2022-11-20T17:41:38;4.30;59.70
7970;DHT22;4030;52.362;9.206;2022-11-20T17:44:04;4.60;58.40
7970;DHT22;4030;52.362;9.206;2022-11-20T17:46:31;4.60;58.40
7970;DHT22;4030;52.362;9.206;2022-11-20T17:48:58;4.60;58.50
7970;DHT22;4030;52.362;9.206;2022-11-20T17:51:26;4.40;59.70
7970;DHT22;4030;52.362;9.206;2022-11-20T17:53:56;4.40;59.90
7970;DHT22;4030;52.362;9.206;2022-11-20T17:56:24;4.50;60.20
7970;DHT22;4030;52.362;9.206;2022-11-20T17:59:11;4.60;58.60
7970;DHT22;4030;52.362;9.206;2022-11-20T18:01:38;4.50;60.10
7970;DHT22;4030;52.362;9.206;2022-11-20T18:04:05;4.70;59.00
7970;DHT22;4030;52.362;9.206;2022-11-20T18:06:31;4.60;59.60
7970;DHT22;4030;52.362;9.206;2022-11-20T18:08:58;4.30;59.00
7970;DHT22;4030;52.362;9.206;2022-11-20T18:11:32;4.30;60.00
7970;DHT22;4030;52.362;9.206;2022-11-20T18:14:01;4.60;60.40
7970;DHT22;4030;52.362;9.206;2022-11-20T18:16:50;4.70;59.50
7970;DHT22;4030;52.362;9.206;2022-11-20T18:19:20;4.60;60.60
7970;DHT22;4030;52.362;9.206;2022-11-20T18:21:47;4.50;60.60
7970;DHT22;4030;52.362;9.206;2022-11-20T18:24:13;4.60;60.00
7970;DHT22;4030;52.362;9.206;2022-11-20T18:26:39;4.60;60.60
7970;DHT22;4030;52.362;9.206;2022-11-20T18:29:05;4.50;59.60
7970;DHT22;4030;52.362;9.206;2022-11-20T18:36:25;4.60;59.00
7970;DHT22;4030;52.362;9.206;2022-11-20T18:38:54;4.40;60.70
7970;DHT22;4030;52.362;9.206;2022-11-20T18:41:27;4.60;61.00
7970;DHT22;4030;52.362;9.206;2022-11-20T18:44:15;4.80;61.10
7970;DHT22;4030;52.362;9.206;2022-11-20T18:47:01;4.60;60.90
7970;DHT22;4030;52.362;9.206;2022-11-20T18:59:12;6.60;61.20
7970;DHT22;4030;52.362;9.206;2022-11-20T19:01:38;4.60;61.10
7970;DHT22;4030;52.362;9.206;2022-11-20T19:04:12;4.50;60.10
7970;DHT22;4030;52.362;9.206;2022-11-20T19:06:40;4.40;61.00
7970;DHT22;4030;52.362;9.206;2022-11-20T19:09:09;4.30;61.00
7970;DHT22;4030;52.362;9.206;2022-11-20T19:11:37;4.60;61.30
7970;DHT22;4030;52.362;9.206;2022-11-20T19:14:03;4.40;61.10
7970;DHT22;4030;52.362;9.206;2022-11-20T19:16:29;4.50;59.90
7970;DHT22;4030;52.362;9.206;2022-11-20T19:18:58;4.20;61.10
7970;DHT22;4030;52.362;9.206;2022-11-20T19:21:24;4.60;60.20
7970;DHT22;4030;52.362;9.206;2022-11-20T19:23:53;4.50;59.30
7970;DHT22;4030;52.362;9.206;2022-11-20T19:28:47;4.80;61.50
7970;DHT22;4030;52.362;9.206;2022-11-20T19:31:15;4.70;61.30
7970;DHT22;4030;52.362;9.206;2022-11-20T19:33:45;4.70;59.80
7970;DHT22;4030;52.362;9.206;2022-11-20T19:36:13;4.30;61.10
7970;DHT22;4030;52.362;9.206;2022-11-20T19:38:43;4.40;59.30
7970;DHT22;4030;52.362;9.206;2022-11-20T19:46:03;4.70;66.20
7970;DHT22;4030;52.362;9.206;2022-11-20T19:48:33;4.60;65.40
7970;DHT22;4030;52.362;9.206;2022-11-20T19:51:14;4.40;65.70
7970;DHT22;4030;52.362;9.206;2022-11-20T19:53:42;4.60;64.60
7970;DHT22;4030;52.362;9.206;2022-11-20T19:58:34;4.70;66.50
7970;DHT22;4030;52.362;9.206;2022-11-20T20:01:12;4.60;65.80
7970;DHT22;4030;52.362;9.206;2022-11-20T20:03:39;4.50;65.60
7970;DHT22;4030;52.362;9.206;2022-11-20T20:06:07;4.60;65.00
7970;DHT22;4030;52.362;9.206;2022-11-20T20:08:35;4.50;65.00
7970;DHT22;4030;52.362;9.206;2022-11-20T20:11:16;4.50;62.60
7970;DHT22;4030;52.362;9.206;2022-11-20T20:13:43;4.60;64.60
7970;DHT22;4030;52.362;9.206;2022-11-20T20:16:17;4.70;64.70
7970;DHT22;4030;52.362;9.206;2022-11-20T20:18:45;4.30;63.90
7970;DHT22;4030;52.362;9.206;2022-11-20T20:21:13;4.80;64.70
7970;DHT22;4030;52.362;9.206;2022-11-20T20:23:41;4.40;64.20
7970;DHT22;4030;52.362;9.206;2022-11-20T20:26:08;4.70;62.50
7970;DHT22;4030;52.362;9.206;2022-11-20T20:28:35;4.40;63.70
7970;DHT22;4030;52.362;9.206;2022-11-20T20:31:13;4.30;64.10
7970;DHT22;4030;52.362;9.206;2022-11-20T20:33:40;4.50;64.30
7970;DHT22;4030;52.362;9.206;2022-11-20T20:36:07;4.50;62.10
7970;DHT22;4030;52.362;9.206;2022-11-20T20:38:34;4.80;64.60
7970;DHT22;4030;52.362;9.206;2022-11-20T20:41:00;4.30;64.10
7970;DHT22;4030;52.362;9.206;2022-11-20T20:43:26;4.50;64.40
7970;DHT22;4030;52.362;9.206;2022-11-20T20:45:53;4.50;62.10
7970;DHT22;4030;52.362;9.206;2022-11-20T20:48:21;4.40;64.20
7970;DHT22;4030;52.362;9.206;2022-11-20T20:50:59;4.60;64.50
7970;DHT22;4030;52.362;9.206;2022-11-20T20:53:25;4.50;64.20
7970;DHT22;4030;52.362;9.206;2022-11-20T20:56:00;4.70;64.60
7970;DHT22;4030;52.362;9.206;2022-11-20T20:58:28;4.60;64.60
7970;DHT22;4030;52.362;9.206;2022-11-20T21:01:00;4.60;64.50
7970;DHT22;4030;52.362;9.206;2022-11-20T21:05:56;4.40;62.40
7970;DHT22;4030;52.362;9.206;2022-11-20T21:08:23;4.40;62.10
7970;DHT22;4030;52.362;9.206;2022-11-20T21:13:28;4.40;62.10
7970;DHT22;4030;52.362;9.206;2022-11-20T21:15:54;4.40;64.30
7970;DHT22;4030;52.362;9.206;2022-11-20T21:18:21;4.10;64.00
7970;DHT22;4030;52.362;9.206;2022-11-20T21:20:48;4.70;63.10
7970;DHT22;4030;52.362;9.206;2022-11-20T21:23:33;4.40;62.10
7970;DHT22;4030;52.362;9.206;2022-11-20T21:26:01;4.40;62.20
7970;DHT22;4030;52.362;9.206;2022-11-20T21:28:30;4.40;62.10
7970;DHT22;4030;52.362;9.206;2022-11-20T21:33:46;4.30;63.70
7970;DHT22;4030;52.362;9.206;2022-11-20T21:36:21;4.30;64.20
7970;DHT22;4030;52.362;9.206;2022-11-20T21:38:50;4.40;62.10
7970;DHT22;4030;52.362;9.206;2022-11-20T21:41:18;4.50;64.50
7970;DHT22;4030;52.362;9.206;2022-11-20T21:43:43;4.40;64.30
7970;DHT22;4030;52.362;9.206;2022-11-20T21:46:14;4.20;64.20
7970;DHT22;4030;52.362;9.206;2022-11-20T21:48:42;4.20;62.30
7970;DHT22;4030;52.362;9.206;2022-11-20T21:51:10;4.40;62.10
7970;DHT22;4030;52.362;9.206;2022-11-20T21:53:36;4.70;62.80
7970;DHT22;4030;52.362;9.206;2022-11-20T21:56:04;4.20;62.10
7970;DHT22;4030;52.362;9.206;2022-11-20T22:00:57;4.10;62.20
7970;DHT22;4030;52.362;9.206;2022-11-20T22:05:56;4.20;61.90
7970;DHT22;4030;52.362;9.206;2022-11-20T22:08:23;4.40;64.50
7970;DHT22;4030;52.362;9.206;2022-11-20T22:10:57;4.40;64.10
7970;DHT22;4030;52.362;9.206;2022-11-20T22:16:10;4.20;64.10
7970;DHT22;4030;52.362;9.206;2022-11-20T22:18:50;4.00;63.90
7970;DHT22;4030;52.362;9.206;2022-11-20T22:21:24;4.30;63.40
7970;DHT22;4030;52.362;9.206;2022-11-20T22:26:19;4.30;62.00
7970;DHT22;4030;52.362;9.206;2022-11-20T22:28:50;4.00;63.90
7970;DHT22;4030;52.362;9.206;2022-11-20T22:31:18;4.30;64.20
7970;DHT22;4030;52.362;9.206;2022-11-20T22:36:14;4.10;63.50
7970;DHT22;4030;52.362;9.206;2022-11-20T22:38:41;4.60;64.40
7970;DHT22;4030;52.362;9.206;2022-11-20T22:41:12;4.30;62.80
7970;DHT22;4030;52.362;9.206;2022-11-20T22:43:43;4.10;63.20
7970;DHT22;4030;52.362;9.206;2022-11-20T22:48:48;4.30;61.70
7970;DHT22;4030;52.362;9.206;2022-11-20T22:51:15;4.10;63.70
7970;DHT22;4030;52.362;9.206;2022-11-20T22:56:10;4.40;62.90
7970;DHT22;4030;52.362;9.206;2022-11-20T22:58:38;4.00;63.60
7970;DHT22;4030;52.362;9.206;2022-11-20T23:01:28;4.30;62.00
7970;DHT22;4030;52.362;9.206;2022-11-20T23:04:14;4.40;64.10
7970;DHT22;4030;52.362;9.206;2022-11-20T23:06:40;4.30;62.40
7970;DHT22;4030;52.362;9.206;2022-11-20T23:09:07;4.20;61.40
7970;DHT22;4030;52.362;9.206;2022-11-20T23:11:33;4.40;64.00
7970;DHT22;4030;52.362;9.206;2022-11-20T23:14:09;4.50;64.10
7970;DHT22;4030;52.362;9.206;2022-11-20T23:16:37;4.10;63.70
7970;DHT22;4030;52.362;9.206;2022-11-20T23:19:09;4.10;63.70
7970;DHT22;4030;52.362;9.206;2022-11-20T23:21:38;4.20;61.30
7970;DHT22;4030;52.362;9.206;2022-11-20T23:24:05;4.10;61.20
7970;DHT22;4030;52.362;9.206;2022-11-20T23:26:33;4.10;63.30